sensor_id;sensor_type;location;lat;lon;timestamp;pressure;altitude;pressure_sealevel;temperature;humidity
20210;BME280;10264;53.178;5.840;2022-09-09T00:04:45;100780.59;;;13.80;50.41
20210;BME280;10264;53.178;5.840;2022-09-09T00:15:38;100766.28;;;13.84;50.42
20210;BME280;10264;53.178;5.840;2022-09-09T00:20:56;100757.03;;;13.75;50.42
20210;BME280;10264;53.178;5.840;2022-09-09T00:23:39;100755.25;;;13.76;50.41
20210;BME280;10264;53.178;5.840;2022-09-09T00:26:22;100755.38;;;13.73;50.42
20210;BME280;10264;53.178;5.840;2022-09-09T00:31:38;100751.25;;;13.67;50.41
20210;BME280;10264;53.178;5.840;2022-09-09T00:34:19;100738.25;;;13.63;50.41
20210;BME280;10264;53.178;5.840;2022-09-09T00:36:49;100739.50;;;13.56;50.42
20210;BME280;10264;53.178;5.840;2022-09-09T00:39:38;100741.13;;;13.58;50.42
20210;BME280;10264;53.178;5.840;2022-09-09T00:42:16;100733.34;;;13.55;50.41
20210;BME280;10264;53.178;5.840;2022-09-09T00:47:46;100736.84;;;13.56;50.41
20210;BME280;10264;53.178;5.840;2022-09-09T00:50:49;100742.28;;;13.52;50.42
20210;BME280;10264;53.178;5.840;2022-09-09T00:58:26;100744.63;;;13.59;50.42
20210;BME280;10264;53.178;5.840;2022-09-09T01:01:19;100744.63;;;13.59;50.40
20210;BME280;10264;53.178;5.840;2022-09-09T01:06:25;100754.19;;;13.61;50.38
20210;BME280;10264;53.178;5.840;2022-09-09T01:09:25;100753.34;;;13.61;50.38
20210;BME280;10264;53.178;5.840;2022-09-09T01:14:49;100755.75;;;13.65;50.38
20210;BME280;10264;53.178;5.840;2022-09-09T01:17:28;100760.53;;;13.76;50.38
20210;BME280;10264;53.178;5.840;2022-09-09T01:22:55;100758.19;;;13.87;50.43
20210;BME280;10264;53.178;5.840;2022-09-09T01:28:09;100752.94;;;14.04;50.41
20210;BME280;10264;53.178;5.840;2022-09-09T01:30:39;100753.22;;;14.15;50.39
20210;BME280;10264;53.178;5.840;2022-09-09T01:33:11;100742.66;;;14.15;50.38
20210;BME280;10264;53.178;5.840;2022-09-09T01:38:14;100742.38;;;14.04;50.36
20210;BME280;10264;53.178;5.840;2022-09-09T01:40:41;100744.22;;;14.02;50.35
20210;BME280;10264;53.178;5.840;2022-09-09T01:43:08;100742.72;;;13.96;50.38
20210;BME280;10264;53.178;5.840;2022-09-09T01:45:35;100746.09;;;14.00;50.38
20210;BME280;10264;53.178;5.840;2022-09-09T01:48:03;100756.03;;;13.95;50.38
20210;BME280;10264;53.178;5.840;2022-09-09T01:50:29;100765.03;;;13.91;50.39
20210;BME280;10264;53.178;5.840;2022-09-09T01:52:58;100888.09;;;13.96;50.38
20210;BME280;10264;53.178;5.840;2022-09-09T01:55:30;100890.97;;;13.92;50.38
20210;BME280;10264;53.178;5.840;2022-09-09T02:01:02;100900.91;;;13.87;50.38
20210;BME280;10264;53.178;5.840;2022-09-09T02:03:32;100899.28;;;13.84;50.38
20210;BME280;10264;53.178;5.840;2022-09-09T02:08:48;100898.19;;;13.88;50.39
20210;BME280;10264;53.178;5.840;2022-09-09T02:11:18;100888.72;;;13.84;50.38
20210;BME280;10264;53.178;5.840;2022-09-09T02:13:47;100885.16;;;13.85;50.38
20210;BME280;10264;53.178;5.840;2022-09-09T02:19:10;100889.41;;;13.88;50.37
20210;BME280;10264;53.178;5.840;2022-09-09T02:21:37;100891.69;;;13.77;50.36
20210;BME280;10264;53.178;5.840;2022-09-09T02:24:07;100891.69;;;13.77;50.38
20210;BME280;10264;53.178;5.840;2022-09-09T02:26:37;100881.28;;;13.74;50.37
20210;BME280;10264;53.178;5.840;2022-09-09T02:29:08;100883.63;;;13.80;50.38
20210;BME280;10264;53.178;5.840;2022-09-09T02:31:36;100881.69;;;13.83;50.39
20210;BME280;10264;53.178;5.840;2022-09-09T02:34:05;100883.97;;;13.91;50.40
20210;BME280;10264;53.178;5.840;2022-09-09T02:36:34;100881.13;;;13.95;50.40
20210;BME280;10264;53.178;5.840;2022-09-09T02:39:03;100873.09;;;13.97;50.42
20210;BME280;10264;53.178;5.840;2022-09-09T02:41:38;100875.69;;;13.98;50.41
20210;BME280;10264;53.178;5.840;2022-09-09T02:44:10;100858.03;;;13.99;50.42
20210;BME280;10264;53.178;5.840;2022-09-09T02:52:15;100849.38;;;14.14;50.46
20210;BME280;10264;53.178;5.840;2022-09-09T02:54:43;100843.00;;;14.18;50.46
20210;BME280;10264;53.178;5.840;2022-09-09T02:57:28;100839.25;;;14.22;50.45
20210;BME280;10264;53.178;5.840;2022-09-09T02:59:58;100835.19;;;14.15;50.45
20210;BME280;10264;53.178;5.840;2022-09-09T03:02:25;100836.38;;;14.10;50.47
20210;BME280;10264;53.178;5.840;2022-09-09T03:04:51;100840.94;;;14.06;50.47
20210;BME280;10264;53.178;5.840;2022-09-09T03:07:19;100848.47;;;13.96;50.46
20210;BME280;10264;53.178;5.840;2022-09-09T03:09:45;100839.31;;;14.04;50.46
20210;BME280;10264;53.178;5.840;2022-09-09T03:12:12;100844.66;;;14.02;50.46
20210;BME280;10264;53.178;5.840;2022-09-09T03:14:39;100846.53;;;14.00;50.49
20210;BME280;10264;53.178;5.840;2022-09-09T03:17:05;100836.81;;;14.01;50.47
20210;BME280;10264;53.178;5.840;2022-09-09T03:19:32;100831.59;;;13.99;50.48
20210;BME280;10264;53.178;5.840;2022-09-09T03:21:58;100831.50;;;14.01;50.50
20210;BME280;10264;53.178;5.840;2022-09-09T03:24:25;100829.41;;;13.90;50.51
20210;BME280;10264;53.178;5.840;2022-09-09T03:26:51;100825.00;;;13.90;50.52
20210;BME280;10264;53.178;5.840;2022-09-09T03:29:17;100816.84;;;13.95;50.53
20210;BME280;10264;53.178;5.840;2022-09-09T03:31:44;100819.72;;;13.90;50.54
20210;BME280;10264;53.178;5.840;2022-09-09T03:34:11;100823.97;;;13.93;50.54
20210;BME280;10264;53.178;5.840;2022-09-09T03:36:37;100825.13;;;13.87;50.54
20210;BME280;10264;53.178;5.840;2022-09-09T03:39:03;100824.41;;;13.84;50.55
20210;BME280;10264;53.178;5.840;2022-09-09T03:41:30;100814.47;;;13.89;50.51
20210;BME280;10264;53.178;5.840;2022-09-09T03:43:57;100817.13;;;13.89;50.47
20210;BME280;10264;53.178;5.840;2022-09-09T03:46:24;100814.00;;;13.81;50.46
20210;BME280;10264;53.178;5.840;2022-09-09T03:48:51;100811.38;;;13.81;50.43
20210;BME280;10264;53.178;5.840;2022-09-09T03:51:18;100806.84;;;13.83;50.40
20210;BME280;10264;53.178;5.840;2022-09-09T03:53:44;100794.72;;;13.79;50.41
20210;BME280;10264;53.178;5.840;2022-09-09T03:56:11;100787.41;;;13.84;50.40
20210;BME280;10264;53.178;5.840;2022-09-09T03:58:38;100796.84;;;13.89;50.40
20210;BME280;10264;53.178;5.840;2022-09-09T04:01:14;100803.34;;;13.82;50.39
20210;BME280;10264;53.178;5.840;2022-09-09T04:03:40;100792.13;;;13.77;50.36
20210;BME280;10264;53.178;5.840;2022-09-09T04:06:09;100794.72;;;13.79;50.35
20210;BME280;10264;53.178;5.840;2022-09-09T04:08:35;100789.72;;;13.73;50.37
20210;BME280;10264;53.178;5.840;2022-09-09T04:11:02;100790.53;;;13.75;50.37
20210;BME280;10264;53.178;5.840;2022-09-09T04:13:28;100782.72;;;13.72;50.39
20210;BME280;10264;53.178;5.840;2022-09-09T04:15:57;100786.84;;;13.77;50.38
20210;BME280;10264;53.178;5.840;2022-09-09T04:18:25;100797.13;;;13.83;50.39
20210;BME280;10264;53.178;5.840;2022-09-09T04:20:52;100792.88;;;13.98;50.40
20210;BME280;10264;53.178;5.840;2022-09-09T04:23:19;100787.38;;;14.03;50.42
20210;BME280;10264;53.178;5.840;2022-09-09T04:25:50;100794.78;;;14.13;50.44
20210;BME280;10264;53.178;5.840;2022-09-09T04:28:18;100780.47;;;14.17;50.45
20210;BME280;10264;53.178;5.840;2022-09-09T04:30:46;100778.75;;;14.16;50.46
20210;BME280;10264;53.178;5.840;2022-09-09T04:33:13;100781.94;;;14.23;50.46
20210;BME280;10264;53.178;5.840;2022-09-09T04:35:45;100776.66;;;14.23;50.48
20210;BME280;10264;53.178;5.840;2022-09-09T04:38:12;100775.56;;;14.27;50.47
20210;BME280;10264;53.178;5.840;2022-09-09T04:40:38;100774.78;;;14.25;50.48
20210;BME280;10264;53.178;5.840;2022-09-09T04:43:05;100770.19;;;14.28;50.47
20210;BME280;10264;53.178;5.840;2022-09-09T04:45:31;100767.22;;;14.34;50.50
20210;BME280;10264;53.178;5.840;2022-09-09T04:47:58;100757.69;;;14.32;50.49
20210;BME280;10264;53.178;5.840;2022-09-09T04:50:24;100769.97;;;14.33;50.50
20210;BME280;10264;53.178;5.840;2022-09-09T04:52:50;100766.19;;;14.38;50.51
20210;BME280;10264;53.178;5.840;2022-09-09T04:55:17;100761.66;;;14.40;50.52
20210;BME280;10264;53.178;5.840;2022-09-09T04:57:43;100757.41;;;14.38;50.51
20210;BME280;10264;53.178;5.840;2022-09-09T05:00:10;100755.44;;;14.42;50.52
20210;BME280;10264;53.178;5.840;2022-09-09T05:02:37;100762.28;;;14.46;50.52
20210;BME280;10264;53.178;5.840;2022-09-09T05:05:05;100757.06;;;14.44;50.51
20210;BME280;10264;53.178;5.840;2022-09-09T05:07:31;100755.28;;;14.45;50.53
20210;BME280;10264;53.178;5.840;2022-09-09T05:09:58;100759.56;;;14.47;50.52
20210;BME280;10264;53.178;5.840;2022-09-09T05:12:24;100759.63;;;14.46;50.53
20210;BME280;10264;53.178;5.840;2022-09-09T05:14:51;100760.50;;;14.46;50.54
20210;BME280;10264;53.178;5.840;2022-09-09T05:17:18;100768.19;;;14.51;50.54
20210;BME280;10264;53.178;5.840;2022-09-09T05:19:44;100775.88;;;14.55;50.55
20210;BME280;10264;53.178;5.840;2022-09-09T05:22:11;100796.88;;;14.58;50.56
20210;BME280;10264;53.178;5.840;2022-09-09T05:24:37;100794.84;;;14.63;50.57
20210;BME280;10264;53.178;5.840;2022-09-09T05:27:04;100787.69;;;14.65;50.58
20210;BME280;10264;53.178;5.840;2022-09-09T05:29:32;100785.59;;;14.72;50.59
20210;BME280;10264;53.178;5.840;2022-09-09T05:31:59;100776.38;;;14.79;50.61
20210;BME280;10264;53.178;5.840;2022-09-09T05:34:25;100775.78;;;14.74;50.62
20210;BME280;10264;53.178;5.840;2022-09-09T05:36:51;100782.78;;;14.75;50.61
20210;BME280;10264;53.178;5.840;2022-09-09T05:39:18;100782.28;;;14.84;50.62
20210;BME280;10264;53.178;5.840;2022-09-09T05:41:44;100784.88;;;14.86;50.59
20210;BME280;10264;53.178;5.840;2022-09-09T05:44:11;100783.84;;;14.88;50.61
20210;BME280;10264;53.178;5.840;2022-09-09T05:46:37;100775.88;;;14.88;50.57
20210;BME280;10264;53.178;5.840;2022-09-09T05:49:04;100786.34;;;14.91;50.59
20210;BME280;10264;53.178;5.840;2022-09-09T05:51:31;100786.41;;;14.90;50.59
20210;BME280;10264;53.178;5.840;2022-09-09T05:53:57;100786.59;;;14.87;50.58
20210;BME280;10264;53.178;5.840;2022-09-09T05:56:26;100778.72;;;14.85;50.57
20210;BME280;10264;53.178;5.840;2022-09-09T05:58:54;100774.78;;;14.92;50.61
20210;BME280;10264;53.178;5.840;2022-09-09T06:01:29;100765.25;;;15.05;50.62
20210;BME280;10264;53.178;5.840;2022-09-09T06:03:56;100772.19;;;15.08;50.60
20210;BME280;10264;53.178;5.840;2022-09-09T06:06:25;100762.88;;;15.16;50.63
20210;BME280;10264;53.178;5.840;2022-09-09T06:08:55;100763.91;;;15.30;50.68
20210;BME280;10264;53.178;5.840;2022-09-09T06:11:24;100751.81;;;15.57;50.79
20210;BME280;10264;53.178;5.840;2022-09-09T06:13:51;100748.22;;;15.58;50.79
20210;BME280;10264;53.178;5.840;2022-09-09T06:16:19;100751.41;;;15.79;50.82
20210;BME280;10264;53.178;5.840;2022-09-09T06:18:46;100748.34;;;15.86;50.84
20210;BME280;10264;53.178;5.840;2022-09-09T06:21:17;100752.00;;;15.84;50.86
20210;BME280;10264;53.178;5.840;2022-09-09T06:23:44;100738.31;;;15.91;50.91
20210;BME280;10264;53.178;5.840;2022-09-09T06:26:16;100731.91;;;15.95;50.90
20210;BME280;10264;53.178;5.840;2022-09-09T06:28:42;100747.97;;;15.92;50.94
20210;BME280;10264;53.178;5.840;2022-09-09T06:31:11;100750.88;;;15.88;50.96
20210;BME280;10264;53.178;5.840;2022-09-09T06:33:39;100743.97;;;15.85;50.98
20210;BME280;10264;53.178;5.840;2022-09-09T06:36:17;100746.28;;;15.91;51.01
20210;BME280;10264;53.178;5.840;2022-09-09T06:38:44;100760.50;;;15.59;51.02
20210;BME280;10264;53.178;5.840;2022-09-09T06:41:12;100765.81;;;15.59;51.02
20210;BME280;10264;53.178;5.840;2022-09-09T06:43:39;100761.28;;;15.61;51.05
20210;BME280;10264;53.178;5.840;2022-09-09T06:46:09;100749.91;;;15.59;51.04
20210;BME280;10264;53.178;5.840;2022-09-09T06:48:38;100753.22;;;15.47;51.06
20210;BME280;10264;53.178;5.840;2022-09-09T06:51:05;100752.56;;;15.59;51.13
20210;BME280;10264;53.178;5.840;2022-09-09T06:53:36;100752.00;;;15.54;51.13
20210;BME280;10264;53.178;5.840;2022-09-09T06:56:21;100745.97;;;15.66;51.14
20210;BME280;10264;53.178;5.840;2022-09-09T06:58:50;100749.75;;;15.62;51.15
20210;BME280;10264;53.178;5.840;2022-09-09T07:01:19;100751.63;;;15.60;51.17
20210;BME280;10264;53.178;5.840;2022-09-09T07:03:48;100744.59;;;15.75;51.20
20210;BME280;10264;53.178;5.840;2022-09-09T07:06:20;100744.22;;;15.96;51.22
20210;BME280;10264;53.178;5.840;2022-09-09T07:08:58;100741.38;;;15.99;51.24
20210;BME280;10264;53.178;5.840;2022-09-09T07:11:30;100743.13;;;16.14;51.27
20210;BME280;10264;53.178;5.840;2022-09-09T07:13:58;100735.94;;;16.31;51.27
20210;BME280;10264;53.178;5.840;2022-09-09T07:16:26;100745.44;;;16.35;51.28
20210;BME280;10264;53.178;5.840;2022-09-09T07:18:53;100725.56;;;17.13;51.34
20210;BME280;10264;53.178;5.840;2022-09-09T07:21:20;100724.56;;;17.96;51.38
20210;BME280;10264;53.178;5.840;2022-09-09T07:23:46;100725.19;;;17.99;51.37
20210;BME280;10264;53.178;5.840;2022-09-09T07:26:15;100734.06;;;17.73;51.38
20210;BME280;10264;53.178;5.840;2022-09-09T07:28:42;100730.41;;;17.61;51.36
20210;BME280;10264;53.178;5.840;2022-09-09T07:31:14;100737.69;;;17.72;51.33
20210;BME280;10264;53.178;5.840;2022-09-09T07:33:41;100739.91;;;18.05;51.34
20210;BME280;10264;53.178;5.840;2022-09-09T07:38:47;100732.56;;;18.60;51.38
20210;BME280;10264;53.178;5.840;2022-09-09T07:41:22;100728.63;;;19.99;51.45
20210;BME280;10264;53.178;5.840;2022-09-09T07:43:50;100741.34;;;19.48;51.35
20210;BME280;10264;53.178;5.840;2022-09-09T07:46:18;100758.69;;;19.17;51.24
20210;BME280;10264;53.178;5.840;2022-09-09T07:48:55;100764.03;;;19.17;51.21
20210;BME280;10264;53.178;5.840;2022-09-09T07:51:42;100778.03;;;18.83;51.08
20210;BME280;10264;53.178;5.840;2022-09-09T07:54:12;100795.53;;;18.47;50.99
20210;BME280;10264;53.178;5.840;2022-09-09T07:56:39;100810.31;;;18.65;51.00
20210;BME280;10264;53.178;5.840;2022-09-09T07:59:07;100815.84;;;18.88;51.00
20210;BME280;10264;53.178;5.840;2022-09-09T08:01:36;100827.69;;;18.84;50.93
20210;BME280;10264;53.178;5.840;2022-09-09T08:04:05;100825.97;;;18.83;50.91
20210;BME280;10264;53.178;5.840;2022-09-09T08:06:35;100818.81;;;19.46;50.99
20210;BME280;10264;53.178;5.840;2022-09-09T08:09:04;100846.31;;;19.47;50.94
20210;BME280;10264;53.178;5.840;2022-09-09T08:11:30;100865.06;;;19.58;50.91
20210;BME280;10264;53.178;5.840;2022-09-09T08:14:04;100896.34;;;19.18;50.82
20210;BME280;10264;53.178;5.840;2022-09-09T08:16:32;100908.13;;;19.77;50.87
20210;BME280;10264;53.178;5.840;2022-09-09T08:18:59;100917.53;;;20.67;50.95
20210;BME280;10264;53.178;5.840;2022-09-09T08:21:27;100929.00;;;23.11;51.21
20210;BME280;10264;53.178;5.840;2022-09-09T08:23:56;101013.44;;;23.48;51.08
20210;BME280;10264;53.178;5.840;2022-09-09T08:26:38;101075.38;;;22.92;50.86
20210;BME280;10264;53.178;5.840;2022-09-09T08:29:06;101120.00;;;22.27;50.75
20210;BME280;10264;53.178;5.840;2022-09-09T08:31:38;101130.63;;;23.16;50.79
20210;BME280;10264;53.178;5.840;2022-09-09T08:34:05;101132.41;;;25.59;50.90
20210;BME280;10264;53.178;5.840;2022-09-09T08:36:35;101144.00;;;25.89;50.85
20210;BME280;10264;53.178;5.840;2022-09-09T08:39:04;101178.00;;;24.22;50.78
20210;BME280;10264;53.178;5.840;2022-09-09T08:53:08;101148.00;;;22.56;50.77
20210;BME280;10264;53.178;5.840;2022-09-09T09:01:17;101175.75;;;22.10;50.80
20210;BME280;10264;53.178;5.840;2022-09-09T09:09:50;101215.84;;;21.41;50.83
20210;BME280;10264;53.178;5.840;2022-09-09T09:12:23;101177.44;;;23.86;50.89
20210;BME280;10264;53.178;5.840;2022-09-09T09:14:51;101207.75;;;24.30;50.97
20210;BME280;10264;53.178;5.840;2022-09-09T09:17:19;101269.63;;;22.77;51.03
20210;BME280;10264;53.178;5.840;2022-09-09T09:19:47;101300.06;;;21.71;51.04
20210;BME280;10264;53.178;5.840;2022-09-09T09:22:39;101296.13;;;21.15;51.02
20210;BME280;10264;53.178;5.840;2022-09-09T09:25:27;101284.16;;;20.83;51.00
20210;BME280;10264;53.178;5.840;2022-09-09T09:28:18;101277.44;;;20.65;50.99
20210;BME280;10264;53.178;5.840;2022-09-09T09:30:54;101284.91;;;20.34;50.98
20210;BME280;10264;53.178;5.840;2022-09-09T09:33:26;101273.00;;;20.26;50.96
20210;BME280;10264;53.178;5.840;2022-09-09T09:35:55;101274.03;;;19.98;50.96
20210;BME280;10264;53.178;5.840;2022-09-09T09:38:24;101262.28;;;19.61;50.93
20210;BME280;10264;53.178;5.840;2022-09-09T09:41:10;101266.84;;;19.59;50.90
20210;BME280;10264;53.178;5.840;2022-09-09T09:43:40;101244.34;;;19.90;50.89
20210;BME280;10264;53.178;5.840;2022-09-09T09:46:20;101243.28;;;20.05;50.87
20210;BME280;10264;53.178;5.840;2022-09-09T09:48:59;101217.59;;;20.80;50.87
20210;BME280;10264;53.178;5.840;2022-09-09T09:51:28;101234.34;;;20.82;50.90
20210;BME280;10264;53.178;5.840;2022-09-09T09:56:31;101240.75;;;21.65;50.94
20210;BME280;10264;53.178;5.840;2022-09-09T09:58:58;101266.94;;;20.87;50.96
20210;BME280;10264;53.178;5.840;2022-09-09T10:01:30;101283.59;;;20.27;50.97
20210;BME280;10264;53.178;5.840;2022-09-09T10:03:59;101276.69;;;20.37;50.94
20210;BME280;10264;53.178;5.840;2022-09-09T10:06:34;101272.66;;;20.70;50.95
20210;BME280;10264;53.178;5.840;2022-09-09T10:09:03;101287.72;;;20.71;50.97
20210;BME280;10264;53.178;5.840;2022-09-09T10:11:44;101285.59;;;20.76;50.97
20210;BME280;10264;53.178;5.840;2022-09-09T10:14:20;101277.59;;;22.44;51.01
20210;BME280;10264;53.178;5.840;2022-09-09T10:16:55;101291.69;;;23.14;51.10
20210;BME280;10264;53.178;5.840;2022-09-09T10:19:36;101370.03;;;22.14;51.20
20210;BME280;10264;53.178;5.840;2022-09-09T10:22:26;101402.81;;;21.69;51.30
20210;BME280;10264;53.178;5.840;2022-09-09T10:33:22;101457.44;;;21.54;52.94
20210;BME280;10264;53.178;5.840;2022-09-09T10:36:17;101460.78;;;21.19;100.00
20210;BME280;10264;53.178;5.840;2022-09-09T10:38:46;101448.78;;;21.38;100.00
20210;BME280;10264;53.178;5.840;2022-09-09T10:41:19;101446.50;;;21.82;100.00
20210;BME280;10264;53.178;5.840;2022-09-09T10:52:09;101446.75;;;24.74;100.00
20210;BME280;10264;53.178;5.840;2022-09-09T10:54:56;101422.28;;;26.87;100.00
20210;BME280;10264;53.178;5.840;2022-09-09T10:57:54;101425.78;;;28.35;100.00
20210;BME280;10264;53.178;5.840;2022-09-09T11:02:57;101512.81;;;25.71;100.00
20210;BME280;10264;53.178;5.840;2022-09-09T11:05:45;101481.91;;;27.69;100.00
20210;BME280;10264;53.178;5.840;2022-09-09T11:08:23;100520.75;;;28.97;100.00
20210;BME280;10264;53.178;5.840;2022-09-09T11:10:53;101192.38;;;29.69;100.00
20210;BME280;10264;53.178;5.840;2022-09-09T11:13:32;101214.59;;;30.21;100.00
20210;BME280;10264;53.178;5.840;2022-09-09T11:18:46;101232.03;;;25.10;100.00
20210;BME280;10264;53.178;5.840;2022-09-09T11:21:21;101236.88;;;24.55;100.00
20210;BME280;10264;53.178;5.840;2022-09-09T11:23:53;101234.91;;;24.37;100.00
20210;BME280;10264;53.178;5.840;2022-09-09T11:26:37;101227.16;;;25.44;100.00
20210;BME280;10264;53.178;5.840;2022-09-09T11:29:32;101212.16;;;25.51;100.00
20210;BME280;10264;53.178;5.840;2022-09-09T11:32:13;101214.81;;;24.61;100.00
20210;BME280;10264;53.178;5.840;2022-09-09T11:34:56;101220.53;;;24.17;100.00
20210;BME280;10264;53.178;5.840;2022-09-09T11:40:26;101192.13;;;26.30;100.00
20210;BME280;10264;53.178;5.840;2022-09-09T11:43:12;101186.63;;;26.13;100.00
20210;BME280;10264;53.178;5.840;2022-09-09T11:45:40;101192.69;;;25.28;100.00
20210;BME280;10264;53.178;5.840;2022-09-09T11:48:24;101195.63;;;25.06;100.00
20210;BME280;10264;53.178;5.840;2022-09-09T11:51:04;101192.59;;;24.90;100.00
20210;BME280;10264;53.178;5.840;2022-09-09T11:53:32;101210.13;;;23.92;100.00
20210;BME280;10264;53.178;5.840;2022-09-09T11:56:12;101220.06;;;22.83;100.00
20210;BME280;10264;53.178;5.840;2022-09-09T11:58:53;101244.88;;;22.63;100.00
20210;BME280;10264;53.178;5.840;2022-09-09T12:01:34;101245.44;;;23.44;100.00
20210;BME280;10264;53.178;5.840;2022-09-09T12:04:17;101251.03;;;23.52;100.00
20210;BME280;10264;53.178;5.840;2022-09-09T12:07:21;101260.63;;;23.00;100.00
20210;BME280;10264;53.178;5.840;2022-09-09T12:09:54;101264.47;;;22.52;100.00
20210;BME280;10264;53.178;5.840;2022-09-09T12:12:34;101259.38;;;21.90;100.00
20210;BME280;10264;53.178;5.840;2022-09-09T12:17:47;101111.09;;;21.10;100.00
20210;BME280;10264;53.178;5.840;2022-09-09T12:23:05;101056.91;;;21.08;100.00
20210;BME280;10264;53.178;5.840;2022-09-09T12:34:41;100892.78;;;22.32;100.00
20210;BME280;10264;53.178;5.840;2022-09-09T12:37:15;100927.97;;;22.38;100.00
20210;BME280;10264;53.178;5.840;2022-09-09T12:39:51;100981.94;;;22.11;100.00
20210;BME280;10264;53.178;5.840;2022-09-09T12:42:25;101032.97;;;21.99;100.00
20210;BME280;10264;53.178;5.840;2022-09-09T12:45:00;101060.94;;;22.17;100.00
20210;BME280;10264;53.178;5.840;2022-09-09T12:47:43;101076.03;;;22.07;100.00
20210;BME280;10264;53.178;5.840;2022-09-09T12:50:16;101078.22;;;22.46;100.00
20210;BME280;10264;53.178;5.840;2022-09-09T12:52:44;101100.72;;;22.88;100.00
20210;BME280;10264;53.178;5.840;2022-09-09T12:55:21;101120.50;;;23.19;100.00
20210;BME280;10264;53.178;5.840;2022-09-09T12:57:49;101145.78;;;23.06;100.00
20210;BME280;10264;53.178;5.840;2022-09-09T13:00:25;101146.06;;;22.80;100.00
20210;BME280;10264;53.178;5.840;2022-09-09T13:02:59;101171.47;;;23.08;100.00
20210;BME280;10264;53.178;5.840;2022-09-09T13:05:34;101171.38;;;22.98;100.00
20210;BME280;10264;53.178;5.840;2022-09-09T13:08:06;101174.38;;;22.73;100.00
20210;BME280;10264;53.178;5.840;2022-09-09T13:10:55;101169.81;;;22.51;100.00
20210;BME280;10264;53.178;5.840;2022-09-09T13:13:35;101166.50;;;22.26;100.00
20210;BME280;10264;53.178;5.840;2022-09-09T13:16:20;101168.34;;;22.36;100.00
20210;BME280;10264;53.178;5.840;2022-09-09T13:18:48;101169.66;;;22.31;100.00
20210;BME280;10264;53.178;5.840;2022-09-09T13:21:15;101170.88;;;22.15;100.00
20210;BME280;10264;53.178;5.840;2022-09-09T13:23:41;101178.31;;;22.45;100.00
20210;BME280;10264;53.178;5.840;2022-09-09T13:26:23;101154.09;;;22.80;100.00
20210;BME280;10264;53.178;5.840;2022-09-09T13:28:50;101141.44;;;22.49;100.00
20210;BME280;10264;53.178;5.840;2022-09-09T13:31:28;101148.22;;;22.64;100.00
20210;BME280;10264;53.178;5.840;2022-09-09T13:33:55;101148.75;;;22.58;100.00
20210;BME280;10264;53.178;5.840;2022-09-09T13:36:33;101151.66;;;22.10;100.00
20210;BME280;10264;53.178;5.840;2022-09-09T13:39:02;101171.09;;;21.77;100.00
20210;BME280;10264;53.178;5.840;2022-09-09T13:41:32;101196.59;;;21.36;100.00
20210;BME280;10264;53.178;5.840;2022-09-09T13:44:00;101224.28;;;20.98;100.00
20210;BME280;10264;53.178;5.840;2022-09-09T13:46:39;101186.75;;;20.51;100.00
20210;BME280;10264;53.178;5.840;2022-09-09T13:51:44;100942.00;;;19.51;100.00
20210;BME280;10264;53.178;5.840;2022-09-09T13:54:13;100835.22;;;19.28;100.00
20210;BME280;10264;53.178;5.840;2022-09-09T13:56:41;100553.16;;;19.56;100.00
20210;BME280;10264;53.178;5.840;2022-09-09T13:59:17;100535.53;;;19.89;100.00
20210;BME280;10264;53.178;5.840;2022-09-09T14:01:44;100805.38;;;20.19;100.00
20210;BME280;10264;53.178;5.840;2022-09-09T14:04:10;100915.38;;;20.83;100.00
20210;BME280;10264;53.178;5.840;2022-09-09T14:06:38;100964.53;;;21.50;100.00
20210;BME280;10264;53.178;5.840;2022-09-09T14:09:06;100898.75;;;21.81;100.00
20210;BME280;10264;53.178;5.840;2022-09-09T14:11:33;100804.13;;;21.60;100.00
20210;BME280;10264;53.178;5.840;2022-09-09T14:14:00;100750.47;;;21.18;100.00
20210;BME280;10264;53.178;5.840;2022-09-09T14:16:26;100711.56;;;20.92;100.00
20210;BME280;10264;53.178;5.840;2022-09-09T14:18:53;100679.75;;;20.78;100.00
20210;BME280;10264;53.178;5.840;2022-09-09T14:21:19;100685.81;;;20.58;100.00
20210;BME280;10264;53.178;5.840;2022-09-09T14:23:46;100668.69;;;20.49;100.00
20210;BME280;10264;53.178;5.840;2022-09-09T14:26:12;100667.84;;;20.60;100.00
20210;BME280;10264;53.178;5.840;2022-09-09T14:28:39;100670.63;;;20.58;100.00
20210;BME280;10264;53.178;5.840;2022-09-09T14:31:20;100668.56;;;20.84;100.00
20210;BME280;10264;53.178;5.840;2022-09-09T14:33:47;100674.00;;;21.27;100.00
20210;BME280;10264;53.178;5.840;2022-09-09T14:36:13;100628.78;;;21.13;100.00
20210;BME280;10264;53.178;5.840;2022-09-09T14:38:40;100600.28;;;20.91;100.00
20210;BME280;10264;53.178;5.840;2022-09-09T14:41:08;100585.63;;;20.74;100.00
20210;BME280;10264;53.178;5.840;2022-09-09T14:43:39;100590.25;;;20.72;100.00
20210;BME280;10264;53.178;5.840;2022-09-09T14:46:11;100570.28;;;20.33;100.00
20210;BME280;10264;53.178;5.840;2022-09-09T14:48:38;100561.97;;;20.25;100.00
20210;BME280;10264;53.178;5.840;2022-09-09T14:51:12;100553.00;;;20.04;100.00
20210;BME280;10264;53.178;5.840;2022-09-09T14:53:40;100547.88;;;19.79;100.00
20210;BME280;10264;53.178;5.840;2022-09-09T14:56:09;100562.28;;;19.76;100.00
20210;BME280;10264;53.178;5.840;2022-09-09T14:58:36;100572.28;;;19.85;100.00
20210;BME280;10264;53.178;5.840;2022-09-09T15:01:11;100600.97;;;19.82;100.00
20210;BME280;10264;53.178;5.840;2022-09-09T15:03:40;100619.78;;;19.80;100.00
20210;BME280;10264;53.178;5.840;2022-09-09T15:06:09;100676.63;;;19.81;100.00
20210;BME280;10264;53.178;5.840;2022-09-09T15:08:37;100743.16;;;19.71;100.00
20210;BME280;10264;53.178;5.840;2022-09-09T15:11:08;100880.44;;;19.54;100.00
20210;BME280;10264;53.178;5.840;2022-09-09T15:13:37;100998.91;;;18.86;100.00